Time;durP1;ratioP1;P1;durP2;ratioP2;P2;SDS_P1;SDS_P2;PMS_P1;PMS_P2;Temp;Humidity;BMP_temperature;BMP_pressure;BME280_temperature;BME280_humidity;BME280_pressure;Samples;Min_cycle;Max_cycle;Signal;HPM_P1;HPM_P2
2022/04/16 00:01:49;;;;;;;14.20;11.00;;;8.60;99.90;;;;;;4995497;28;20053;-64
2022/04/16 00:04:14;;;;;;;13.70;10.68;;;9.30;99.90;;;;;;5014489;28;20088;-65
2022/04/16 00:06:40;;;;;;;20.90;13.55;;;8.50;99.90;;;;;;4998391;28;20708;-64
2022/04/16 00:09:06;;;;;;;19.15;11.77;;;8.40;99.90;;;;;;4999869;28;20053;-64
2022/04/16 00:11:32;;;;;;;18.67;10.93;;;8.40;99.90;;;;;;5025857;28;20048;-64
2022/04/16 00:13:58;;;;;;;14.23;10.65;;;8.30;99.90;;;;;;5004202;28;20058;-64
2022/04/16 00:16:24;;;;;;;13.73;10.82;;;8.20;99.90;;;;;;4997623;28;20897;-64
2022/04/16 00:18:50;;;;;;;17.45;11.73;;;8.00;99.90;;;;;;4980287;28;20049;-64
2022/04/16 00:21:17;;;;;;;19.17;11.15;;;8.00;99.90;;;;;;4998283;28;20061;-64
2022/04/16 00:23:43;;;;;;;17.30;11.90;;;7.90;99.90;;;;;;5004476;28;20057;-64
2022/04/16 00:26:12;;;;;;;16.80;9.82;;;7.90;99.90;;;;;;4996986;28;20038;-64
2022/04/16 00:28:38;;;;;;;16.98;10.85;;;7.80;99.90;;;;;;5022870;28;20056;-64
2022/04/16 00:31:04;;;;;;;18.33;11.18;;;7.70;99.90;;;;;;5032332;28;20154;-65
2022/04/16 00:33:31;;;;;;;17.52;10.50;;;7.70;99.90;;;;;;5017313;28;20037;-64
2022/04/16 00:35:57;;;;;;;16.60;10.85;;;7.70;99.90;;;;;;5015594;28;20481;-64
2022/04/16 00:38:23;;;;;;;15.85;11.15;;;7.70;99.90;;;;;;4999304;28;20069;-64
2022/04/16 00:40:48;;;;;;;15.70;10.23;;;7.70;99.90;;;;;;4997726;28;20049;-64
2022/04/16 00:43:28;;;;;;;16.00;11.57;;;7.70;99.90;;;;;;5015647;28;20043;-63
2022/04/16 00:45:54;;;;;;;14.65;10.48;;;7.70;99.90;;;;;;5015953;28;20067;-64
2022/04/16 00:48:21;;;;;;;16.73;11.98;;;7.70;99.90;;;;;;5015081;28;20041;-64
2022/04/16 00:50:49;;;;;;;14.00;10.45;;;7.70;99.90;;;;;;5015323;28;20142;-64
2022/04/16 00:53:15;;;;;;;20.05;11.70;;;7.70;99.90;;;;;;5014172;28;20544;-64
2022/04/16 00:55:41;;;;;;;17.00;11.77;;;7.70;99.90;;;;;;5012481;28;20555;-64
2022/04/16 00:58:07;;;;;;;19.60;12.85;;;7.70;99.90;;;;;;5015352;28;20041;-64
2022/04/16 01:00:32;;;;;;;17.17;11.63;;;7.60;99.90;;;;;;4996658;28;20734;-64
2022/04/16 01:02:58;;;;;;;23.10;11.57;;;7.60;99.90;;;;;;5018286;28;20115;-64
2022/04/16 01:05:24;;;;;;;17.17;11.35;;;7.60;99.90;;;;;;5015420;28;20085;-64
2022/04/16 01:07:53;;;;;;;16.95;11.35;;;7.50;99.90;;;;;;5016285;28;20053;-64
2022/04/16 01:10:25;;;;;;;19.38;11.38;;;7.50;99.90;;;;;;4997297;28;20045;-64
2022/04/16 01:12:55;;;;;;;20.08;11.00;;;7.50;99.90;;;;;;5015378;28;20045;-64
2022/04/16 01:15:21;;;;;;;20.25;12.68;;;7.50;99.90;;;;;;5015723;28;20045;-64
2022/04/16 01:17:51;;;;;;;16.75;11.90;;;7.40;99.90;;;;;;5000750;28;20104;-64
2022/04/16 01:20:17;;;;;;;13.55;9.68;;;7.40;99.90;;;;;;4997679;28;20049;-64
2022/04/16 01:22:45;;;;;;;14.27;9.05;;;7.40;99.90;;;;;;4996898;28;20734;-64
2022/04/16 01:25:11;;;;;;;15.10;9.68;;;7.40;99.90;;;;;;5015282;28;20814;-64
2022/04/16 01:27:39;;;;;;;15.95;10.65;;;7.30;99.90;;;;;;5014739;28;20041;-64
2022/04/16 01:30:05;;;;;;;19.48;10.18;;;7.20;99.90;;;;;;5014778;28;20052;-64
2022/04/16 01:32:33;;;;;;;16.33;10.15;;;7.20;99.90;;;;;;5015960;28;20049;-64
2022/04/16 01:35:00;;;;;;;15.10;9.65;;;7.10;99.90;;;;;;5014187;28;20071;-64
2022/04/16 01:37:31;;;;;;;15.25;9.93;;;7.10;99.90;;;;;;5016216;28;20069;-65
2022/04/16 01:39:58;;;;;;;17.42;10.82;;;7.10;99.90;;;;;;5014680;28;20045;-65
2022/04/16 01:42:24;;;;;;;16.33;10.65;;;7.10;99.90;;;;;;5014501;28;20125;-65
2022/04/16 01:44:51;;;;;;;12.52;10.05;;;7.00;99.90;;;;;;4997205;28;20049;-64
2022/04/16 01:47:17;;;;;;;13.35;10.40;;;7.00;99.90;;;;;;5015580;28;20745;-64
2022/04/16 01:49:43;;;;;;;17.67;10.95;;;7.00;99.90;;;;;;5023803;28;20044;-64
2022/04/16 01:52:09;;;;;;;16.45;11.52;;;7.10;99.90;;;;;;5036283;28;20117;-65
2022/04/16 01:54:36;;;;;;;17.25;11.43;;;7.00;99.90;;;;;;5029300;28;20091;-65
2022/04/16 01:57:02;;;;;;;15.50;11.40;;;7.10;99.90;;;;;;5013848;28;20056;-65
2022/04/16 01:59:29;;;;;;;16.90;11.52;;;7.00;99.90;;;;;;5013967;28;20037;-65
2022/04/16 02:01:56;;;;;;;18.33;12.00;;;7.00;99.90;;;;;;5013987;28;20277;-65
2022/04/16 02:04:22;;;;;;;18.15;10.82;;;7.00;99.90;;;;;;5013138;28;20059;-65
2022/04/16 02:06:50;;;;;;;16.25;11.65;;;7.00;99.90;;;;;;5014122;28;20081;-65
2022/04/16 02:09:16;;;;;;;18.63;11.60;;;7.00;99.90;;;;;;5013657;28;20048;-65
2022/04/16 02:11:42;;;;;;;16.25;10.25;;;7.00;99.90;;;;;;5013462;28;20096;-65
2022/04/16 02:14:08;;;;;;;15.75;11.88;;;7.10;99.90;;;;;;5013495;28;20182;-65
2022/04/16 02:16:33;;;;;;;15.30;11.02;;;7.10;99.90;;;;;;5013866;28;20081;-65
2022/04/16 02:19:00;;;;;;;17.25;11.85;;;7.20;99.90;;;;;;4995401;28;20069;-65
2022/04/16 02:21:26;;;;;;;20.30;12.05;;;7.20;99.90;;;;;;5002315;28;20401;-65
2022/04/16 02:23:52;;;;;;;15.88;11.90;;;7.30;99.90;;;;;;4995818;28;20050;-65
2022/04/16 02:26:20;;;;;;;21.60;15.45;;;7.30;99.90;;;;;;5009290;28;20045;-65
2022/04/16 02:28:47;;;;;;;23.42;15.15;;;7.40;99.90;;;;;;5006322;28;20123;-65
2022/04/16 02:31:13;;;;;;;21.92;13.35;;;7.40;99.90;;;;;;4995419;28;20850;-65
2022/04/16 02:33:38;;;;;;;21.50;15.02;;;7.40;99.90;;;;;;4997633;28;20053;-65
2022/04/16 02:36:05;;;;;;;18.58;13.52;;;7.50;99.90;;;;;;5013612;28;20872;-66
2022/04/16 02:38:31;;;;;;;21.67;12.90;;;7.50;99.90;;;;;;5015144;28;20049;-65
2022/04/16 02:40:56;;;;;;;19.83;13.75;;;7.60;99.90;;;;;;5011384;28;20815;-65
2022/04/16 02:43:22;;;;;;;25.70;14.05;;;7.70;99.90;;;;;;5012617;28;20115;-65
2022/04/16 02:48:33;;;;;;;22.30;13.68;;;7.70;99.90;;;;;;5016218;28;20052;-65
2022/04/16 02:50:59;;;;;;;24.20;14.73;;;7.70;99.90;;;;;;5025161;28;20055;-65
2022/04/16 02:53:26;;;;;;;18.35;13.10;;;7.80;99.90;;;;;;5018176;28;20049;-65
2022/04/16 02:55:54;;;;;;;22.77;13.57;;;7.80;99.90;;;;;;5018572;28;20041;-65
2022/04/16 02:58:20;;;;;;;23.55;16.27;;;7.90;99.90;;;;;;5005372;28;20060;-65
2022/04/16 03:00:46;;;;;;;24.58;16.48;;;7.90;99.90;;;;;;4978805;28;20050;-65
2022/04/16 03:03:12;;;;;;;24.25;15.80;;;8.00;99.90;;;;;;4979373;28;20846;-65
2022/04/16 03:05:37;;;;;;;21.15;14.27;;;8.00;99.90;;;;;;4996048;28;20133;-65
2022/04/16 03:08:06;;;;;;;22.27;14.88;;;8.10;99.90;;;;;;4996382;28;20512;-65
2022/04/16 03:10:31;;;;;;;20.67;14.98;;;8.20;99.90;;;;;;4979665;28;20149;-66
2022/04/16 03:12:57;;;;;;;22.35;15.52;;;8.20;99.90;;;;;;4996763;28;20041;-65
2022/04/16 03:18:09;;;;;;;26.20;17.13;;;8.30;99.90;;;;;;4982232;28;20060;-65
2022/04/16 03:20:34;;;;;;;29.83;17.35;;;8.30;99.90;;;;;;4999434;28;20056;-65
2022/04/16 03:23:00;;;;;;;26.75;18.35;;;8.40;99.90;;;;;;4999407;28;20057;-65
2022/04/16 03:25:29;;;;;;;29.27;18.23;;;8.40;99.90;;;;;;4999931;28;20052;-65
2022/04/16 03:27:56;;;;;;;23.92;17.38;;;8.50;99.90;;;;;;4999647;28;20124;-65
2022/04/16 03:30:23;;;;;;;30.98;20.05;;;8.50;99.90;;;;;;4982423;28;20096;-66
2022/04/16 03:32:50;;;;;;;28.77;19.38;;;8.50;99.90;;;;;;4981704;28;20121;-66
2022/04/16 03:35:19;;;;;;;26.17;16.55;;;8.50;99.90;;;;;;4999013;28;20057;-65
2022/04/16 03:37:45;;;;;;;36.38;17.83;;;8.50;99.90;;;;;;4999307;28;20060;-66
2022/04/16 03:40:12;;;;;;;28.45;17.50;;;8.50;99.90;;;;;;4999645;28;20053;-65
2022/04/16 03:43:04;;;;;;;29.35;18.58;;;8.50;99.90;;;;;;4998845;28;20050;-65
2022/04/16 03:45:33;;;;;;;37.75;20.95;;;8.50;99.90;;;;;;4996717;28;20050;-66
2022/04/16 03:48:00;;;;;;;33.80;19.48;;;8.50;99.90;;;;;;4998855;28;20085;-66
2022/04/16 03:50:27;;;;;;;33.97;21.88;;;8.50;99.90;;;;;;4998484;28;20752;-65
2022/04/16 03:52:54;;;;;;;34.45;21.70;;;8.50;99.90;;;;;;4999997;28;20229;-66
2022/04/16 04:00:54;;;;;;;35.85;22.17;;;8.50;99.90;;;;;;4999789;28;20272;-65
2022/04/16 04:03:20;;;;;;;33.35;20.98;;;8.50;99.90;;;;;;4999043;28;20878;-66
2022/04/16 04:05:48;;;;;;;40.10;23.00;;;8.40;99.90;;;;;;4999096;28;20050;-66
2022/04/16 04:08:14;;;;;;;38.58;24.60;;;8.40;99.90;;;;;;4999318;28;20116;-66
2022/04/16 04:10:39;;;;;;;37.22;20.48;;;8.40;99.90;;;;;;4998466;28;20046;-66
2022/04/16 04:13:05;;;;;;;35.33;20.63;;;8.40;99.90;;;;;;4981413;28;20760;-66
2022/04/16 04:15:31;;;;;;;38.45;23.40;;;8.40;99.90;;;;;;4981470;28;20054;-66
2022/04/16 04:18:00;;;;;;;32.83;19.90;;;8.40;99.90;;;;;;4980102;28;20049;-66
2022/04/16 04:20:27;;;;;;;36.17;23.85;;;8.40;99.90;;;;;;4998882;28;20046;-65
2022/04/16 04:22:53;;;;;;;38.75;22.67;;;8.40;99.90;;;;;;4981406;28;20093;-66
2022/04/16 04:25:18;;;;;;;37.35;24.38;;;8.40;99.90;;;;;;4998001;28;20144;-65
2022/04/16 04:27:44;;;;;;;36.97;23.98;;;8.40;99.90;;;;;;4998757;28;20047;-66
2022/04/16 04:30:10;;;;;;;36.22;23.15;;;8.40;99.90;;;;;;4998868;28;20057;-65
2022/04/16 04:32:36;;;;;;;34.05;19.60;;;8.40;99.90;;;;;;4980219;28;20084;-65
2022/04/16 04:35:06;;;;;;;38.13;22.13;;;8.40;99.90;;;;;;4998446;28;20489;-65
2022/04/16 04:37:32;;;;;;;34.90;20.85;;;8.40;99.90;;;;;;4997847;28;20258;-65
2022/04/16 04:39:58;;;;;;;34.45;22.85;;;8.40;99.90;;;;;;4997664;28;20112;-65
2022/04/16 04:42:25;;;;;;;38.45;25.42;;;8.40;99.90;;;;;;5008278;28;20049;-65
2022/04/16 04:44:50;;;;;;;34.80;23.35;;;8.30;99.90;;;;;;5017334;28;20572;-66
2022/04/16 04:47:16;;;;;;;38.75;23.42;;;8.40;99.90;;;;;;5018119;28;20060;-66
2022/04/16 04:49:42;;;;;;;36.50;22.27;;;8.30;99.90;;;;;;5018684;28;20054;-66
2022/04/16 04:52:07;;;;;;;37.30;23.75;;;8.40;99.90;;;;;;5017373;28;20489;-65
2022/04/16 04:54:33;;;;;;;38.05;22.60;;;8.40;99.90;;;;;;5017781;28;20160;-66
2022/04/16 04:56:58;;;;;;;31.95;23.10;;;8.40;99.90;;;;;;5017737;28;20088;-66
2022/04/16 04:59:24;;;;;;;41.28;23.33;;;8.40;99.90;;;;;;4999745;28;20057;-65
2022/04/16 05:01:49;;;;;;;29.73;20.08;;;8.40;99.90;;;;;;5017570;28;20583;-66
2022/04/16 05:04:15;;;;;;;29.58;17.95;;;8.40;99.90;;;;;;5000282;28;20049;-66
2022/04/16 05:06:40;;;;;;;35.97;21.17;;;8.40;99.90;;;;;;4999135;28;20099;-66
2022/04/16 05:09:06;;;;;;;29.67;17.27;;;8.40;99.90;;;;;;5017478;28;20049;-67
2022/04/16 05:11:32;;;;;;;30.02;18.00;;;8.30;99.90;;;;;;5017680;28;20049;-67
2022/04/16 05:13:57;;;;;;;28.70;17.48;;;8.40;99.90;;;;;;5016836;28;20053;-66
2022/04/16 05:16:23;;;;;;;31.75;19.80;;;8.30;99.90;;;;;;4999379;28;20053;-66
2022/04/16 05:18:49;;;;;;;32.50;19.17;;;8.40;99.90;;;;;;5017127;28;20049;-67
2022/04/16 05:21:14;;;;;;;27.10;19.02;;;8.40;99.90;;;;;;5016704;28;20842;-67
2022/04/16 05:23:40;;;;;;;29.55;18.90;;;8.40;99.90;;;;;;5017562;28;20132;-67
2022/04/16 05:26:08;;;;;;;27.42;17.50;;;8.40;99.90;;;;;;5017373;28;20041;-67
2022/04/16 05:28:34;;;;;;;25.23;16.38;;;8.40;99.90;;;;;;5016739;28;20049;-67
2022/04/16 05:31:01;;;;;;;25.38;16.08;;;8.40;99.90;;;;;;5016881;28;20037;-67
2022/04/16 05:36:10;;;;;;;18.08;11.77;;;8.50;99.90;;;;;;4978960;28;20133;-66
2022/04/16 05:38:36;;;;;;;19.00;12.43;;;8.50;99.90;;;;;;4996652;28;20076;-66
2022/04/16 05:41:02;;;;;;;18.95;12.48;;;8.50;99.90;;;;;;4996520;28;20056;-67
2022/04/16 05:43:27;;;;;;;18.58;13.82;;;8.50;99.90;;;;;;4998305;28;20246;-64
2022/04/16 05:45:53;;;;;;;17.70;11.80;;;8.60;99.90;;;;;;4998951;28;20056;-64
2022/04/16 05:48:18;;;;;;;22.45;13.05;;;8.60;99.90;;;;;;4998311;28;20052;-64
2022/04/16 05:50:45;;;;;;;19.48;11.25;;;8.60;99.90;;;;;;4999352;28;20166;-67
2022/04/16 05:53:12;;;;;;;15.57;12.18;;;8.60;99.90;;;;;;5016762;28;20041;-66
2022/04/16 05:55:40;;;;;;;16.95;9.93;;;8.60;99.90;;;;;;5016148;28;20049;-67
2022/04/16 05:58:06;;;;;;;20.92;12.50;;;8.70;99.90;;;;;;5016837;28;20131;-66
2022/04/16 06:00:33;;;;;;;19.67;11.25;;;8.70;99.90;;;;;;5017099;28;20053;-66
2022/04/16 06:02:59;;;;;;;16.67;12.40;;;8.70;99.90;;;;;;4998675;28;20068;-66
2022/04/16 06:05:24;;;;;;;15.50;10.77;;;8.70;99.90;;;;;;5017305;28;20041;-67
2022/04/16 06:07:50;;;;;;;16.17;11.73;;;8.80;99.90;;;;;;4999163;28;20049;-66
2022/04/16 06:10:16;;;;;;;16.73;11.88;;;8.80;99.90;;;;;;5016685;28;20156;-66
2022/04/16 06:12:41;;;;;;;13.70;9.05;;;8.80;99.90;;;;;;4999155;28;20061;-67
2022/04/16 06:15:07;;;;;;;16.23;9.77;;;8.80;99.90;;;;;;5016848;28;20089;-66
2022/04/16 06:17:34;;;;;;;18.30;10.90;;;8.80;99.90;;;;;;4998851;28;20803;-66
2022/04/16 06:20:00;;;;;;;20.50;11.73;;;8.90;99.90;;;;;;5017101;28;20397;-66
2022/04/16 06:22:25;;;;;;;16.73;10.00;;;8.90;99.90;;;;;;5016851;28;20045;-66
2022/04/16 06:24:51;;;;;;;16.50;10.48;;;9.00;99.90;;;;;;5016114;28;20053;-66
2022/04/16 06:27:16;;;;;;;16.20;9.82;;;9.00;99.90;;;;;;5015307;28;20051;-66
2022/04/16 06:29:42;;;;;;;15.10;10.10;;;9.10;99.90;;;;;;5015388;28;20092;-66
2022/04/16 06:32:08;;;;;;;16.33;10.88;;;9.10;99.90;;;;;;4993646;28;20058;-66
2022/04/16 06:34:33;;;;;;;14.60;10.00;;;9.20;99.90;;;;;;4993057;28;20068;-66
2022/04/16 06:36:59;;;;;;;18.70;10.48;;;9.20;99.90;;;;;;4997245;28;20132;-66
2022/04/16 06:39:25;;;;;;;16.35;9.55;;;9.30;99.90;;;;;;4997496;28;20111;-67
2022/04/16 06:41:50;;;;;;;15.50;9.95;;;9.30;99.90;;;;;;5015530;28;20072;-68
2022/04/16 06:44:16;;;;;;;15.65;9.50;;;9.40;99.90;;;;;;5015275;28;20496;-67
2022/04/16 06:46:41;;;;;;;14.43;8.80;;;9.50;99.90;;;;;;5015894;28;20057;-66
2022/04/16 06:49:07;;;;;;;15.23;10.00;;;9.60;99.90;;;;;;5016246;28;20045;-66
2022/04/16 06:51:32;;;;;;;16.10;9.50;;;9.60;99.90;;;;;;5018971;28;20049;-66
2022/04/16 06:53:58;;;;;;;17.73;9.73;;;9.80;99.90;;;;;;5019695;28;20895;-66
2022/04/16 06:56:24;;;;;;;16.60;10.60;;;9.90;99.90;;;;;;5019211;28;20138;-66
2022/04/16 06:58:49;;;;;;;17.38;10.07;;;10.00;99.90;;;;;;4999891;28;20033;-66
2022/04/16 07:01:15;;;;;;;15.10;9.48;;;10.20;99.90;;;;;;5018395;28;20079;-66
2022/04/16 07:03:41;;;;;;;12.35;6.90;;;10.20;99.90;;;;;;5018486;28;20038;-66
2022/04/16 07:06:07;;;;;;;8.23;5.93;;;10.40;99.90;;;;;;5017485;28;20049;-66
2022/04/16 07:08:32;;;;;;;8.20;5.25;;;10.40;99.90;;;;;;5018374;28;20068;-66
2022/04/16 07:10:58;;;;;;;8.00;5.00;;;11.00;99.90;;;;;;5018579;28;20080;-63
2022/04/16 07:13:23;;;;;;;8.63;4.97;;;12.30;99.90;;;;;;5000138;28;20135;-64
2022/04/16 07:15:49;;;;;;;8.88;6.15;;;13.80;99.90;;;;;;5018573;28;20204;-64
2022/04/16 07:18:15;;;;;;;9.05;6.68;;;14.80;99.90;;;;;;5018871;28;20041;-64
2022/04/16 07:20:42;;;;;;;12.25;8.40;;;15.50;99.90;;;;;;5017923;28;20767;-64
2022/04/16 07:23:08;;;;;;;9.90;7.47;;;15.80;99.90;;;;;;5000847;28;20976;-64
2022/04/16 07:25:34;;;;;;;11.65;8.15;;;16.30;99.40;;;;;;5018419;28;20049;-64
2022/04/16 07:27:59;;;;;;;9.35;7.35;;;16.50;97.60;;;;;;5017691;28;20484;-64
2022/04/16 07:30:25;;;;;;;13.32;8.02;;;16.80;96.50;;;;;;5018185;28;20034;-64
2022/04/16 07:32:51;;;;;;;10.55;6.90;;;17.20;96.20;;;;;;5018171;28;20048;-64
2022/04/16 07:35:16;;;;;;;11.68;7.82;;;17.60;95.60;;;;;;5017817;28;20595;-64
2022/04/16 07:37:42;;;;;;;10.75;6.32;;;17.80;94.80;;;;;;5017370;28;20563;-64
2022/04/16 07:40:08;;;;;;;9.77;7.15;;;17.90;93.70;;;;;;5017810;28;20091;-64
2022/04/16 07:42:34;;;;;;;9.77;6.43;;;18.00;92.80;;;;;;5017220;28;20049;-64
2022/04/16 07:44:59;;;;;;;10.18;6.20;;;17.70;92.20;;;;;;5017854;28;20048;-64
2022/04/16 07:47:25;;;;;;;9.27;5.63;;;17.90;91.20;;;;;;5017467;28;20849;-64
2022/04/16 07:49:50;;;;;;;8.65;5.25;;;17.90;92.00;;;;;;5018740;28;20050;-65
2022/04/16 07:52:16;;;;;;;7.15;4.47;;;17.70;90.50;;;;;;5018789;28;20046;-65
2022/04/16 07:54:42;;;;;;;6.97;5.25;;;17.70;91.00;;;;;;5018051;28;20064;-66
2022/04/16 07:57:07;;;;;;;5.95;4.65;;;17.70;90.90;;;;;;5001098;28;20096;-65
2022/04/16 07:59:33;;;;;;;6.20;5.13;;;17.80;90.30;;;;;;5000258;28;20053;-65
2022/04/16 08:01:59;;;;;;;6.20;4.40;;;17.90;90.00;;;;;;5017507;28;20084;-66
2022/04/16 08:04:25;;;;;;;6.57;4.10;;;17.70;88.90;;;;;;5019185;28;20049;-65
2022/04/16 08:06:51;;;;;;;6.63;4.40;;;17.60;88.60;;;;;;5000135;28;20621;-65
2022/04/16 08:09:17;;;;;;;6.80;4.55;;;17.80;87.30;;;;;;5018297;28;20140;-65
2022/04/16 08:11:45;;;;;;;5.95;3.72;;;17.90;84.40;;;;;;5019286;28;20119;-65
2022/04/16 08:14:12;;;;;;;9.55;4.78;;;18.30;85.20;;;;;;5017975;28;20064;-65
2022/04/16 08:16:37;;;;;;;8.57;5.10;;;18.50;83.80;;;;;;4998440;28;20563;-65
2022/04/16 08:19:03;;;;;;;5.38;3.75;;;18.90;82.80;;;;;;5017441;28;20053;-65
2022/04/16 08:21:30;;;;;;;4.13;3.10;;;18.70;80.90;;;;;;5017557;28;20132;-65
2022/04/16 08:24:04;;;;;;;3.40;2.83;;;18.80;79.40;;;;;;4998643;28;20045;-65
2022/04/16 08:26:32;;;;;;;4.53;3.38;;;18.80;79.50;;;;;;5016416;28;20870;-65
2022/04/16 08:28:58;;;;;;;4.40;2.80;;;18.60;76.80;;;;;;5017644;28;20071;-65
2022/04/16 08:31:23;;;;;;;4.75;2.65;;;18.40;75.10;;;;;;4998722;28;20053;-65
2022/04/16 08:33:49;;;;;;;5.03;3.13;;;18.20;74.60;;;;;;5015237;28;20072;-65
2022/04/16 08:36:15;;;;;;;4.03;2.90;;;18.30;75.10;;;;;;5017793;28;20042;-65
2022/04/16 08:38:41;;;;;;;6.13;2.83;;;18.60;74.90;;;;;;5017235;28;20124;-65
2022/04/16 08:41:09;;;;;;;4.35;2.47;;;19.00;74.30;;;;;;5017970;28;20818;-65
2022/04/16 08:43:35;;;;;;;3.78;2.92;;;19.10;72.10;;;;;;4983434;28;20156;-65
2022/04/16 08:46:03;;;;;;;3.65;2.38;;;19.30;71.80;;;;;;5017092;28;20060;-65
2022/04/16 08:48:30;;;;;;;2.75;2.38;;;19.00;68.70;;;;;;5018111;28;20059;-65
2022/04/16 08:50:57;;;;;;;5.07;2.47;;;19.20;72.30;;;;;;4999088;28;20485;-65
2022/04/16 08:53:23;;;;;;;3.00;2.80;;;19.10;71.50;;;;;;5017789;28;20538;-65
2022/04/16 08:55:48;;;;;;;3.38;2.88;;;19.10;70.00;;;;;;4999997;28;20652;-65
2022/04/16 08:58:14;;;;;;;5.00;2.88;;;18.80;69.60;;;;;;5016151;28;20045;-65
2022/04/16 09:00:39;;;;;;;3.63;2.42;;;18.90;70.70;;;;;;4997932;28;20049;-65
2022/04/16 09:03:06;;;;;;;3.72;2.35;;;18.80;70.00;;;;;;5016104;28;20195;-65
2022/04/16 09:05:32;;;;;;;3.42;2.30;;;18.80;69.10;;;;;;5015279;28;20136;-65
2022/04/16 09:07:59;;;;;;;3.60;2.20;;;18.70;67.50;;;;;;4998336;28;20057;-65
2022/04/16 09:10:27;;;;;;;3.83;2.33;;;18.60;66.10;;;;;;5015965;28;20507;-65
2022/04/16 09:12:54;;;;;;;3.47;2.45;;;18.50;63.30;;;;;;5015032;28;20477;-66
2022/04/16 09:15:20;;;;;;;2.58;2.10;;;18.60;63.70;;;;;;5017318;28;20087;-65
2022/04/16 09:17:58;;;;;;;8.63;2.58;;;18.50;63.50;;;;;;5017480;28;20049;-65
2022/04/16 09:20:29;;;;;;;2.20;1.90;;;18.80;63.10;;;;;;4999005;28;20183;-65
2022/04/16 09:22:55;;;;;;;2.42;2.10;;;18.90;62.30;;;;;;4999275;28;20049;-65
2022/04/16 09:25:21;;;;;;;2.60;1.90;;;19.00;62.70;;;;;;4999583;28;20075;-65
2022/04/16 09:27:51;;;;;;;3.45;1.75;;;18.90;61.30;;;;;;5016605;28;20045;-65
2022/04/16 09:30:29;;;;;;;2.65;1.70;;;19.00;61.90;;;;;;4998898;28;20079;-65
2022/04/16 09:32:58;;;;;;;1.45;1.30;;;19.40;60.60;;;;;;5007601;28;20060;-65
2022/04/16 09:35:38;;;;;;;2.25;1.90;;;19.60;59.90;;;;;;4997230;28;20176;-65
2022/04/16 09:38:06;;;;;;;1.83;1.67;;;19.60;57.90;;;;;;4997910;28;20049;-65
2022/04/16 09:40:34;;;;;;;1.58;1.15;;;19.20;57.00;;;;;;4996775;28;20460;-65
2022/04/16 09:43:02;;;;;;;2.17;1.20;;;19.00;56.10;;;;;;4997453;28;20119;-65
2022/04/16 09:45:29;;;;;;;3.50;1.27;;;19.10;56.30;;;;;;4979728;28;20096;-65
2022/04/16 09:47:55;;;;;;;3.45;1.20;;;19.00;55.80;;;;;;4978635;28;20112;-65
2022/04/16 09:50:23;;;;;;;1.50;1.17;;;19.10;56.00;;;;;;4979374;28;20052;-65
2022/04/16 09:52:52;;;;;;;1.88;1.20;;;18.70;54.50;;;;;;4997121;28;20050;-65
2022/04/16 09:55:20;;;;;;;2.30;1.40;;;18.30;54.20;;;;;;4978950;28;20406;-65
2022/04/16 09:57:49;;;;;;;1.42;1.17;;;18.40;54.50;;;;;;4980037;28;20046;-65
2022/04/16 10:00:16;;;;;;;3.35;1.50;;;18.30;54.00;;;;;;4997065;28;20046;-65
2022/04/16 10:02:42;;;;;;;2.13;1.55;;;18.50;55.20;;;;;;4995995;28;20129;-65
2022/04/16 10:05:09;;;;;;;1.42;1.13;;;18.20;54.50;;;;;;4995405;28;20107;-67
2022/04/16 10:07:37;;;;;;;2.00;1.05;;;18.30;54.60;;;;;;4995303;28;20133;-65
2022/04/16 10:10:06;;;;;;;2.42;1.17;;;18.60;55.20;;;;;;4994422;28;20046;-65
2022/04/16 10:15:23;;;;;;;0.82;0.82;;;18.60;54.10;;;;;;4976987;28;20500;-66
2022/04/16 10:17:52;;;;;;;2.25;1.20;;;18.90;53.30;;;;;;4977137;28;20084;-65
2022/04/16 10:20:19;;;;;;;2.47;0.90;;;19.40;53.80;;;;;;4993289;28;20064;-65
2022/04/16 10:23:07;;;;;;;1.38;1.00;;;19.50;52.90;;;;;;4998111;28;20092;-65
2022/04/16 10:25:42;;;;;;;0.98;0.80;;;19.20;51.50;;;;;;5020199;28;20049;-65
2022/04/16 10:28:19;;;;;;;1.42;1.30;;;18.80;50.70;;;;;;5020231;28;20719;-65
2022/04/16 10:30:53;;;;;;;1.05;0.95;;;18.70;51.30;;;;;;5019854;28;20116;-65
2022/04/16 10:33:24;;;;;;;1.17;1.05;;;18.70;50.90;;;;;;5005715;28;20050;-65
2022/04/16 10:35:56;;;;;;;1.30;1.20;;;18.90;52.20;;;;;;4980722;28;20053;-65
2022/04/16 10:38:43;;;;;;;1.13;1.02;;;19.40;52.10;;;;;;4981490;28;20056;-65
2022/04/16 10:41:19;;;;;;;1.00;1.00;;;19.40;51.50;;;;;;4981585;28;20049;-65
2022/04/16 10:44:01;;;;;;;2.03;1.10;;;19.20;51.80;;;;;;4999484;28;20046;-65
2022/04/16 10:46:40;;;;;;;1.13;1.02;;;19.00;51.90;;;;;;4999953;28;20111;-65
2022/04/16 10:49:11;;;;;;;1.88;0.95;;;18.80;50.90;;;;;;5000444;28;20081;-65
2022/04/16 10:51:36;;;;;;;1.55;1.15;;;18.30;51.10;;;;;;4981509;28;20088;-65
2022/04/16 10:54:13;;;;;;;1.58;1.10;;;17.90;51.70;;;;;;4997708;28;20050;-64
2022/04/16 10:56:40;;;;;;;1.45;1.00;;;16.90;52.30;;;;;;4979082;28;20804;-65
2022/04/16 10:59:11;;;;;;;1.67;1.15;;;16.30;53.00;;;;;;4994739;28;20046;-65
2022/04/16 11:01:37;;;;;;;1.27;1.17;;;15.80;53.20;;;;;;4977688;28;20038;-65
2022/04/16 11:04:13;;;;;;;1.10;1.00;;;15.60;52.90;;;;;;4978705;28;20537;-64
2022/04/16 11:06:43;;;;;;;2.00;1.27;;;15.40;53.10;;;;;;4977078;28;20050;-64
2022/04/16 11:09:12;;;;;;;1.42;0.98;;;15.20;52.70;;;;;;4995542;28;20917;-64
2022/04/16 11:11:38;;;;;;;1.83;1.10;;;15.10;52.80;;;;;;4978006;28;20103;-65
2022/04/16 11:14:07;;;;;;;1.30;1.00;;;15.00;52.60;;;;;;4978292;28;20128;-64
2022/04/16 11:16:41;;;;;;;1.88;1.02;;;15.10;52.50;;;;;;4978836;28;20561;-65
2022/04/16 11:19:15;;;;;;;1.67;1.13;;;15.10;52.50;;;;;;4978509;28;20046;-65
2022/04/16 11:21:42;;;;;;;0.30;0.30;;;14.90;52.80;;;;;;4997263;28;20466;-64
2022/04/16 11:24:09;;;;;;;1.02;0.98;;;14.80;52.40;;;;;;4996808;28;20041;-65
2022/04/16 11:34:54;;;;;;;0.80;0.80;;;15.00;53.60;;;;;;4978867;28;20065;-64
2022/04/16 11:37:20;;;;;;;0.98;0.98;;;15.00;52.80;;;;;;4996067;28;20053;-64
2022/04/16 11:39:48;;;;;;;0.80;0.80;;;15.00;52.00;;;;;;4978772;28;20052;-63
2022/04/16 11:42:14;;;;;;;1.67;1.30;;;15.00;52.00;;;;;;5005730;28;20049;-63
2022/04/16 11:44:42;;;;;;;0.88;0.77;;;15.00;52.70;;;;;;5015942;28;20046;-63
2022/04/16 11:47:14;;;;;;;2.00;1.40;;;14.90;51.10;;;;;;4997983;28;20081;-63
2022/04/16 11:50:01;;;;;;;3.28;1.10;;;14.90;51.60;;;;;;4998520;28;20049;-62
2022/04/16 11:52:28;;;;;;;1.10;0.90;;;14.90;51.10;;;;;;5015949;28;20164;-63
2022/04/16 11:55:04;;;;;;;5.18;2.10;;;14.90;50.80;;;;;;5015709;28;20057;-63
2022/04/16 11:57:31;;;;;;;0.88;0.80;;;15.00;50.30;;;;;;5015917;28;20106;-63
2022/04/16 11:59:59;;;;;;;2.25;0.88;;;15.10;50.40;;;;;;5015673;28;20037;-62
2022/04/16 12:02:32;;;;;;;2.10;1.17;;;15.00;51.20;;;;;;4997870;28;20119;-63
2022/04/16 12:05:26;;;;;;;1.40;1.00;;;15.20;51.20;;;;;;5015917;28;20057;-63
2022/04/16 12:07:53;;;;;;;1.17;1.00;;;15.50;52.00;;;;;;5012257;28;20057;-63
2022/04/16 12:10:18;;;;;;;1.75;1.65;;;15.50;51.20;;;;;;5016356;28;20147;-62
2022/04/16 12:12:49;;;;;;;1.88;1.27;;;15.60;51.00;;;;;;5015366;28;20584;-63
2022/04/16 12:15:30;;;;;;;2.05;1.20;;;15.70;51.40;;;;;;5014968;28;20119;-62
2022/04/16 12:18:07;;;;;;;1.05;0.95;;;15.70;51.70;;;;;;4997709;28;20144;-62
2022/04/16 12:20:33;;;;;;;1.00;0.90;;;15.70;51.60;;;;;;5015578;28;20695;-63
2022/04/16 12:23:00;;;;;;;1.30;1.20;;;15.70;51.40;;;;;;5015585;28;20064;-62
2022/04/16 12:25:26;;;;;;;2.03;1.20;;;15.60;50.70;;;;;;4997981;28;20045;-62
2022/04/16 12:27:57;;;;;;;1.65;0.98;;;15.50;50.40;;;;;;5015577;28;20049;-63
2022/04/16 12:30:28;;;;;;;2.50;1.30;;;15.60;50.90;;;;;;5014895;28;20053;-62
2022/04/16 12:32:59;;;;;;;1.33;1.23;;;15.90;51.00;;;;;;5005475;28;20049;-63
2022/04/16 12:35:25;;;;;;;2.55;0.90;;;15.70;51.50;;;;;;4978168;28;20148;-63
2022/04/16 12:37:53;;;;;;;1.92;1.33;;;15.60;51.20;;;;;;4976295;28;20172;-63
2022/04/16 12:40:19;;;;;;;0.90;0.90;;;15.70;51.90;;;;;;4997276;28;20041;-64
2022/04/16 12:42:44;;;;;;;1.23;1.00;;;15.80;51.80;;;;;;5006889;28;20047;-64
2022/04/16 12:45:10;;;;;;;3.58;1.20;;;15.80;51.20;;;;;;5014078;28;20053;-65
2022/04/16 12:47:35;;;;;;;7.45;1.30;;;15.90;51.10;;;;;;5014960;28;20532;-64
2022/04/16 12:50:01;;;;;;;1.98;1.20;;;16.00;51.80;;;;;;5012596;28;20053;-64
2022/04/16 12:52:26;;;;;;;1.58;1.20;;;16.10;51.80;;;;;;4995667;28;20077;-64
2022/04/16 12:54:52;;;;;;;3.95;1.30;;;16.00;51.70;;;;;;5013140;28;20050;-64
2022/04/16 12:57:18;;;;;;;0.70;0.70;;;16.00;51.50;;;;;;4995084;28;20093;-64
2022/04/16 12:59:43;;;;;;;1.20;1.10;;;16.00;51.10;;;;;;4994924;28;20061;-64
2022/04/16 13:02:09;;;;;;;1.33;1.23;;;16.00;51.10;;;;;;5013873;28;20049;-64
2022/04/16 13:04:34;;;;;;;1.70;1.40;;;15.90;51.60;;;;;;5014042;28;20037;-64
2022/04/16 13:07:00;;;;;;;1.73;1.00;;;16.00;52.30;;;;;;4998352;28;20853;-64